sensor_id;sensor_type;location;lat;lon;timestamp;temperature;humidity
24035;DHT22;12242;50.952;4.678;2022-07-23T00:01:34;19.90;99.90
24035;DHT22;12242;50.952;4.678;2022-07-23T00:04:04;19.80;99.90
24035;DHT22;12242;50.952;4.678;2022-07-23T00:06:32;19.80;99.90
24035;DHT22;12242;50.952;4.678;2022-07-23T00:09:00;19.90;99.90
24035;DHT22;12242;50.952;4.678;2022-07-23T00:11:28;19.80;99.90
24035;DHT22;12242;50.952;4.678;2022-07-23T00:13:55;19.80;99.90
24035;DHT22;12242;50.952;4.678;2022-07-23T00:16:25;19.70;99.90
24035;DHT22;12242;50.952;4.678;2022-07-23T00:18:53;19.70;99.90
24035;DHT22;12242;50.952;4.678;2022-07-23T00:21:21;19.70;99.90
24035;DHT22;12242;50.952;4.678;2022-07-23T00:23:48;19.60;99.90
24035;DHT22;12242;50.952;4.678;2022-07-23T00:26:16;19.60;99.90
24035;DHT22;12242;50.952;4.678;2022-07-23T00:28:43;19.60;99.90
24035;DHT22;12242;50.952;4.678;2022-07-23T00:31:13;19.50;99.90
24035;DHT22;12242;50.952;4.678;2022-07-23T00:33:40;19.60;99.90
24035;DHT22;12242;50.952;4.678;2022-07-23T00:36:08;19.50;99.90
24035;DHT22;12242;50.952;4.678;2022-07-23T00:38:35;19.40;99.90
24035;DHT22;12242;50.952;4.678;2022-07-23T00:41:06;19.40;99.90
24035;DHT22;12242;50.952;4.678;2022-07-23T00:43:33;19.40;99.90
24035;DHT22;12242;50.952;4.678;2022-07-23T00:46:03;19.30;99.90
24035;DHT22;12242;50.952;4.678;2022-07-23T00:48:31;19.40;99.90
24035;DHT22;12242;50.952;4.678;2022-07-23T00:50:58;19.40;99.90
24035;DHT22;12242;50.952;4.678;2022-07-23T00:53:28;19.40;99.90
24035;DHT22;12242;50.952;4.678;2022-07-23T00:55:58;19.40;99.90
24035;DHT22;12242;50.952;4.678;2022-07-23T00:58:26;19.30;99.90
24035;DHT22;12242;50.952;4.678;2022-07-23T01:00:53;19.30;99.90
24035;DHT22;12242;50.952;4.678;2022-07-23T01:03:21;19.20;99.90
24035;DHT22;12242;50.952;4.678;2022-07-23T01:05:51;19.20;99.90
24035;DHT22;12242;50.952;4.678;2022-07-23T01:08:19;19.20;99.90
24035;DHT22;12242;50.952;4.678;2022-07-23T01:10:49;19.10;99.90
24035;DHT22;12242;50.952;4.678;2022-07-23T01:13:18;19.10;99.90
24035;DHT22;12242;50.952;4.678;2022-07-23T01:15:45;19.10;99.90
24035;DHT22;12242;50.952;4.678;2022-07-23T01:18:12;19.10;99.90
24035;DHT22;12242;50.952;4.678;2022-07-23T01:20:40;19.00;99.90
24035;DHT22;12242;50.952;4.678;2022-07-23T01:23:10;19.00;99.90
24035;DHT22;12242;50.952;4.678;2022-07-23T01:25:40;19.00;99.90
24035;DHT22;12242;50.952;4.678;2022-07-23T01:28:16;19.00;99.90
24035;DHT22;12242;50.952;4.678;2022-07-23T01:30:45;19.00;99.90
24035;DHT22;12242;50.952;4.678;2022-07-23T01:33:12;18.90;99.90
24035;DHT22;12242;50.952;4.678;2022-07-23T01:35:39;18.90;99.90
24035;DHT22;12242;50.952;4.678;2022-07-23T01:38:06;18.90;99.90
24035;DHT22;12242;50.952;4.678;2022-07-23T01:40:34;18.80;99.90
24035;DHT22;12242;50.952;4.678;2022-07-23T01:43:03;18.80;99.90
24035;DHT22;12242;50.952;4.678;2022-07-23T01:45:34;18.80;99.90
24035;DHT22;12242;50.952;4.678;2022-07-23T01:48:01;18.80;99.90
24035;DHT22;12242;50.952;4.678;2022-07-23T01:50:36;18.80;99.90
24035;DHT22;12242;50.952;4.678;2022-07-23T01:53:04;18.70;99.90
24035;DHT22;12242;50.952;4.678;2022-07-23T01:55:32;18.70;99.90
24035;DHT22;12242;50.952;4.678;2022-07-23T01:57:59;18.70;99.90
24035;DHT22;12242;50.952;4.678;2022-07-23T02:00:27;18.80;99.90
24035;DHT22;12242;50.952;4.678;2022-07-23T02:02:57;18.80;99.90
24035;DHT22;12242;50.952;4.678;2022-07-23T02:05:28;18.70;99.90
24035;DHT22;12242;50.952;4.678;2022-07-23T02:07:57;18.70;99.90
24035;DHT22;12242;50.952;4.678;2022-07-23T02:10:26;18.70;99.90
24035;DHT22;12242;50.952;4.678;2022-07-23T02:12:54;18.60;99.90
24035;DHT22;12242;50.952;4.678;2022-07-23T02:15:21;18.50;99.90
24035;DHT22;12242;50.952;4.678;2022-07-23T02:17:51;18.60;99.90
24035;DHT22;12242;50.952;4.678;2022-07-23T02:20:18;18.60;99.90
24035;DHT22;12242;50.952;4.678;2022-07-23T02:22:48;18.60;99.90
24035;DHT22;12242;50.952;4.678;2022-07-23T02:25:16;18.60;99.90
24035;DHT22;12242;50.952;4.678;2022-07-23T02:27:44;18.60;99.90
24035;DHT22;12242;50.952;4.678;2022-07-23T02:30:11;18.50;99.90
24035;DHT22;12242;50.952;4.678;2022-07-23T02:32:39;18.40;99.90
24035;DHT22;12242;50.952;4.678;2022-07-23T02:35:07;18.50;99.90
24035;DHT22;12242;50.952;4.678;2022-07-23T02:37:34;18.40;99.90
24035;DHT22;12242;50.952;4.678;2022-07-23T02:40:05;18.30;99.90
24035;DHT22;12242;50.952;4.678;2022-07-23T02:42:33;18.30;99.90
24035;DHT22;12242;50.952;4.678;2022-07-23T02:45:05;18.30;99.90
24035;DHT22;12242;50.952;4.678;2022-07-23T02:47:33;18.30;99.90
24035;DHT22;12242;50.952;4.678;2022-07-23T02:50:00;18.30;99.90
24035;DHT22;12242;50.952;4.678;2022-07-23T02:52:28;18.40;99.90
24035;DHT22;12242;50.952;4.678;2022-07-23T02:54:58;18.30;99.90
24035;DHT22;12242;50.952;4.678;2022-07-23T02:57:30;18.30;99.90
24035;DHT22;12242;50.952;4.678;2022-07-23T02:59:57;18.30;99.90
24035;DHT22;12242;50.952;4.678;2022-07-23T03:02:25;18.30;99.90
24035;DHT22;12242;50.952;4.678;2022-07-23T03:04:54;18.30;99.90
24035;DHT22;12242;50.952;4.678;2022-07-23T03:07:24;18.30;99.90
24035;DHT22;12242;50.952;4.678;2022-07-23T03:09:52;18.20;99.90
24035;DHT22;12242;50.952;4.678;2022-07-23T03:12:19;18.10;99.90
24035;DHT22;12242;50.952;4.678;2022-07-23T03:14:47;18.10;99.90
24035;DHT22;12242;50.952;4.678;2022-07-23T03:17:14;18.10;99.90
24035;DHT22;12242;50.952;4.678;2022-07-23T03:19:45;18.10;99.90
24035;DHT22;12242;50.952;4.678;2022-07-23T03:22:14;18.10;99.90
24035;DHT22;12242;50.952;4.678;2022-07-23T03:24:42;18.10;99.90
24035;DHT22;12242;50.952;4.678;2022-07-23T03:27:24;18.10;99.90
24035;DHT22;12242;50.952;4.678;2022-07-23T03:29:55;18.10;99.90
24035;DHT22;12242;50.952;4.678;2022-07-23T03:32:23;18.10;99.90
24035;DHT22;12242;50.952;4.678;2022-07-23T03:34:51;18.00;99.90
24035;DHT22;12242;50.952;4.678;2022-07-23T03:37:19;18.10;99.90
24035;DHT22;12242;50.952;4.678;2022-07-23T03:39:50;18.10;99.90
24035;DHT22;12242;50.952;4.678;2022-07-23T03:42:18;18.10;99.90
24035;DHT22;12242;50.952;4.678;2022-07-23T03:44:45;18.00;99.90
24035;DHT22;12242;50.952;4.678;2022-07-23T03:47:14;18.00;99.90
24035;DHT22;12242;50.952;4.678;2022-07-23T03:49:42;18.00;99.90
24035;DHT22;12242;50.952;4.678;2022-07-23T03:52:13;17.90;99.90
24035;DHT22;12242;50.952;4.678;2022-07-23T03:54:41;17.90;99.90
24035;DHT22;12242;50.952;4.678;2022-07-23T03:57:11;17.90;99.90
24035;DHT22;12242;50.952;4.678;2022-07-23T03:59:38;17.90;99.90
24035;DHT22;12242;50.952;4.678;2022-07-23T04:02:06;17.90;99.90
24035;DHT22;12242;50.952;4.678;2022-07-23T04:04:33;17.90;99.90
24035;DHT22;12242;50.952;4.678;2022-07-23T04:07:00;17.90;99.90
24035;DHT22;12242;50.952;4.678;2022-07-23T04:09:28;17.80;99.90
24035;DHT22;12242;50.952;4.678;2022-07-23T04:11:56;17.70;99.90
24035;DHT22;12242;50.952;4.678;2022-07-23T04:14:24;17.70;99.90
24035;DHT22;12242;50.952;4.678;2022-07-23T04:16:51;17.70;99.90
24035;DHT22;12242;50.952;4.678;2022-07-23T04:19:18;17.70;99.90
24035;DHT22;12242;50.952;4.678;2022-07-23T04:21:48;17.80;99.90
24035;DHT22;12242;50.952;4.678;2022-07-23T04:24:17;17.80;99.90
24035;DHT22;12242;50.952;4.678;2022-07-23T04:26:45;17.70;99.90
24035;DHT22;12242;50.952;4.678;2022-07-23T04:29:13;17.70;99.90
24035;DHT22;12242;50.952;4.678;2022-07-23T04:31:40;17.70;99.90
24035;DHT22;12242;50.952;4.678;2022-07-23T04:34:09;17.70;99.90
24035;DHT22;12242;50.952;4.678;2022-07-23T04:36:36;17.80;99.90
24035;DHT22;12242;50.952;4.678;2022-07-23T04:39:04;17.80;99.90
24035;DHT22;12242;50.952;4.678;2022-07-23T04:41:32;17.80;99.90
24035;DHT22;12242;50.952;4.678;2022-07-23T04:44:00;17.90;99.90
24035;DHT22;12242;50.952;4.678;2022-07-23T04:46:30;17.90;99.90
24035;DHT22;12242;50.952;4.678;2022-07-23T04:48:58;17.90;99.90
24035;DHT22;12242;50.952;4.678;2022-07-23T04:51:26;18.00;99.90
24035;DHT22;12242;50.952;4.678;2022-07-23T04:53:56;18.00;99.90
24035;DHT22;12242;50.952;4.678;2022-07-23T04:56:24;18.00;99.90
24035;DHT22;12242;50.952;4.678;2022-07-23T04:58:52;18.00;99.90
24035;DHT22;12242;50.952;4.678;2022-07-23T05:01:24;18.10;99.90
24035;DHT22;12242;50.952;4.678;2022-07-23T05:03:54;18.00;99.90
24035;DHT22;12242;50.952;4.678;2022-07-23T05:06:25;18.10;99.90
24035;DHT22;12242;50.952;4.678;2022-07-23T05:08:55;18.20;99.90
24035;DHT22;12242;50.952;4.678;2022-07-23T05:11:23;18.20;99.90
24035;DHT22;12242;50.952;4.678;2022-07-23T05:13:54;18.30;99.90
24035;DHT22;12242;50.952;4.678;2022-07-23T05:16:22;18.30;99.90
24035;DHT22;12242;50.952;4.678;2022-07-23T05:18:50;18.30;99.90
24035;DHT22;12242;50.952;4.678;2022-07-23T05:21:17;18.40;99.90
24035;DHT22;12242;50.952;4.678;2022-07-23T05:23:46;18.40;99.90
24035;DHT22;12242;50.952;4.678;2022-07-23T05:26:13;18.40;99.90
24035;DHT22;12242;50.952;4.678;2022-07-23T05:28:44;18.40;99.90
24035;DHT22;12242;50.952;4.678;2022-07-23T05:31:18;18.50;99.90
24035;DHT22;12242;50.952;4.678;2022-07-23T05:33:46;18.50;99.90
24035;DHT22;12242;50.952;4.678;2022-07-23T05:36:16;18.60;99.90
24035;DHT22;12242;50.952;4.678;2022-07-23T05:38:45;18.70;99.90
24035;DHT22;12242;50.952;4.678;2022-07-23T05:41:15;18.80;99.90
24035;DHT22;12242;50.952;4.678;2022-07-23T05:43:42;18.90;99.90
24035;DHT22;12242;50.952;4.678;2022-07-23T05:46:12;19.00;99.90
24035;DHT22;12242;50.952;4.678;2022-07-23T05:48:40;19.10;99.90
24035;DHT22;12242;50.952;4.678;2022-07-23T05:51:09;19.20;99.90
24035;DHT22;12242;50.952;4.678;2022-07-23T05:53:41;19.40;99.90
24035;DHT22;12242;50.952;4.678;2022-07-23T05:56:09;19.10;99.90
24035;DHT22;12242;50.952;4.678;2022-07-23T05:58:36;19.20;99.90
24035;DHT22;12242;50.952;4.678;2022-07-23T06:01:06;19.40;99.90
24035;DHT22;12242;50.952;4.678;2022-07-23T06:03:34;19.30;99.90
24035;DHT22;12242;50.952;4.678;2022-07-23T06:06:04;19.20;99.90
24035;DHT22;12242;50.952;4.678;2022-07-23T06:08:31;19.00;99.90
24035;DHT22;12242;50.952;4.678;2022-07-23T06:10:59;19.00;99.90
24035;DHT22;12242;50.952;4.678;2022-07-23T06:13:27;18.90;99.90
24035;DHT22;12242;50.952;4.678;2022-07-23T06:15:54;18.80;99.90
24035;DHT22;12242;50.952;4.678;2022-07-23T06:18:22;19.00;99.90
24035;DHT22;12242;50.952;4.678;2022-07-23T06:20:50;19.00;99.90
24035;DHT22;12242;50.952;4.678;2022-07-23T06:23:25;18.90;99.90
24035;DHT22;12242;50.952;4.678;2022-07-23T06:25:53;19.10;99.90
24035;DHT22;12242;50.952;4.678;2022-07-23T06:28:21;19.30;99.90
24035;DHT22;12242;50.952;4.678;2022-07-23T06:30:48;19.50;99.90
24035;DHT22;12242;50.952;4.678;2022-07-23T06:33:16;19.60;99.90
24035;DHT22;12242;50.952;4.678;2022-07-23T06:35:43;19.50;99.90
24035;DHT22;12242;50.952;4.678;2022-07-23T06:38:11;19.70;99.90
24035;DHT22;12242;50.952;4.678;2022-07-23T06:40:42;20.00;99.90
24035;DHT22;12242;50.952;4.678;2022-07-23T06:43:13;20.20;99.90
24035;DHT22;12242;50.952;4.678;2022-07-23T06:45:40;20.30;99.90
24035;DHT22;12242;50.952;4.678;2022-07-23T06:48:08;20.40;99.90
24035;DHT22;12242;50.952;4.678;2022-07-23T06:50:35;20.60;99.90
24035;DHT22;12242;50.952;4.678;2022-07-23T06:53:03;20.80;99.90
24035;DHT22;12242;50.952;4.678;2022-07-23T06:55:33;20.90;99.90
24035;DHT22;12242;50.952;4.678;2022-07-23T06:58:05;21.20;99.90
24035;DHT22;12242;50.952;4.678;2022-07-23T07:00:33;21.10;99.90
24035;DHT22;12242;50.952;4.678;2022-07-23T07:03:02;21.30;99.90
24035;DHT22;12242;50.952;4.678;2022-07-23T07:05:29;21.10;99.90
24035;DHT22;12242;50.952;4.678;2022-07-23T07:07:57;20.80;99.90
24035;DHT22;12242;50.952;4.678;2022-07-23T07:10:24;20.90;99.90
24035;DHT22;12242;50.952;4.678;2022-07-23T07:12:54;21.30;99.90
24035;DHT22;12242;50.952;4.678;2022-07-23T07:15:24;21.50;99.90
24035;DHT22;12242;50.952;4.678;2022-07-23T07:17:52;21.50;99.90
24035;DHT22;12242;50.952;4.678;2022-07-23T07:20:19;21.90;99.90
24035;DHT22;12242;50.952;4.678;2022-07-23T07:22:49;22.20;99.90
24035;DHT22;12242;50.952;4.678;2022-07-23T07:25:17;22.50;99.90
24035;DHT22;12242;50.952;4.678;2022-07-23T07:27:44;22.70;99.90
24035;DHT22;12242;50.952;4.678;2022-07-23T07:30:12;22.90;99.90
24035;DHT22;12242;50.952;4.678;2022-07-23T07:32:41;22.50;99.90
24035;DHT22;12242;50.952;4.678;2022-07-23T07:35:25;22.70;99.90
24035;DHT22;12242;50.952;4.678;2022-07-23T07:37:57;23.00;99.90
24035;DHT22;12242;50.952;4.678;2022-07-23T07:40:24;23.30;99.90
24035;DHT22;12242;50.952;4.678;2022-07-23T07:42:59;23.60;99.90
24035;DHT22;12242;50.952;4.678;2022-07-23T07:45:28;24.10;99.90
24035;DHT22;12242;50.952;4.678;2022-07-23T07:47:56;24.50;99.90
24035;DHT22;12242;50.952;4.678;2022-07-23T07:50:24;24.90;99.90
24035;DHT22;12242;50.952;4.678;2022-07-23T07:52:52;25.20;99.90
24035;DHT22;12242;50.952;4.678;2022-07-23T07:55:21;25.50;99.90
24035;DHT22;12242;50.952;4.678;2022-07-23T07:57:52;25.90;99.90
24035;DHT22;12242;50.952;4.678;2022-07-23T08:00:20;26.00;99.90
24035;DHT22;12242;50.952;4.678;2022-07-23T08:02:52;26.00;98.00
24035;DHT22;12242;50.952;4.678;2022-07-23T08:05:27;25.70;99.20
24035;DHT22;12242;50.952;4.678;2022-07-23T08:07:56;26.00;99.00
24035;DHT22;12242;50.952;4.678;2022-07-23T08:10:25;26.00;98.80
24035;DHT22;12242;50.952;4.678;2022-07-23T08:12:56;26.50;99.00
24035;DHT22;12242;50.952;4.678;2022-07-23T08:15:30;27.30;95.80
24035;DHT22;12242;50.952;4.678;2022-07-23T08:17:59;27.50;95.70
24035;DHT22;12242;50.952;4.678;2022-07-23T08:20:26;27.40;96.30
24035;DHT22;12242;50.952;4.678;2022-07-23T08:23:05;27.10;95.90
24035;DHT22;12242;50.952;4.678;2022-07-23T08:25:38;27.50;95.80
24035;DHT22;12242;50.952;4.678;2022-07-23T08:28:16;28.00;94.90
24035;DHT22;12242;50.952;4.678;2022-07-23T08:30:45;28.40;94.00
24035;DHT22;12242;50.952;4.678;2022-07-23T08:33:17;28.30;93.60
24035;DHT22;12242;50.952;4.678;2022-07-23T08:36:02;27.90;92.40
24035;DHT22;12242;50.952;4.678;2022-07-23T08:38:31;27.20;93.40
24035;DHT22;12242;50.952;4.678;2022-07-23T08:41:02;27.70;94.50
24035;DHT22;12242;50.952;4.678;2022-07-23T08:43:32;28.10;93.00
24035;DHT22;12242;50.952;4.678;2022-07-23T08:46:02;28.40;92.40
24035;DHT22;12242;50.952;4.678;2022-07-23T08:48:35;28.70;91.90
24035;DHT22;12242;50.952;4.678;2022-07-23T08:51:08;29.10;92.50
24035;DHT22;12242;50.952;4.678;2022-07-23T08:53:40;29.50;91.10
24035;DHT22;12242;50.952;4.678;2022-07-23T08:56:08;29.00;90.50
24035;DHT22;12242;50.952;4.678;2022-07-23T08:58:36;29.30;90.10
24035;DHT22;12242;50.952;4.678;2022-07-23T09:01:06;29.20;90.60
24035;DHT22;12242;50.952;4.678;2022-07-23T09:03:37;29.30;90.20
24035;DHT22;12242;50.952;4.678;2022-07-23T09:06:06;29.40;85.30
24035;DHT22;12242;50.952;4.678;2022-07-23T09:08:41;29.80;85.50
24035;DHT22;12242;50.952;4.678;2022-07-23T09:11:12;30.40;83.40
24035;DHT22;12242;50.952;4.678;2022-07-23T09:13:48;30.70;82.30
24035;DHT22;12242;50.952;4.678;2022-07-23T09:16:24;30.90;83.00
24035;DHT22;12242;50.952;4.678;2022-07-23T09:19:05;30.90;80.50
24035;DHT22;12242;50.952;4.678;2022-07-23T09:21:37;30.20;79.80
24035;DHT22;12242;50.952;4.678;2022-07-23T09:26:43;31.10;81.30
24035;DHT22;12242;50.952;4.678;2022-07-23T09:29:19;31.20;81.30
24035;DHT22;12242;50.952;4.678;2022-07-23T09:31:52;31.60;78.90
24035;DHT22;12242;50.952;4.678;2022-07-23T09:36:58;32.10;78.50
24035;DHT22;12242;50.952;4.678;2022-07-23T09:39:31;32.30;78.30
24035;DHT22;12242;50.952;4.678;2022-07-23T09:42:22;31.70;78.80
24035;DHT22;12242;50.952;4.678;2022-07-23T09:44:55;30.70;80.10
24035;DHT22;12242;50.952;4.678;2022-07-23T09:47:25;30.20;76.30
24035;DHT22;12242;50.952;4.678;2022-07-23T09:50:03;30.70;76.90
24035;DHT22;12242;50.952;4.678;2022-07-23T09:52:43;31.40;78.20
24035;DHT22;12242;50.952;4.678;2022-07-23T09:55:11;31.30;75.40
24035;DHT22;12242;50.952;4.678;2022-07-23T09:57:40;31.00;74.00
24035;DHT22;12242;50.952;4.678;2022-07-23T10:00:09;31.10;74.70
24035;DHT22;12242;50.952;4.678;2022-07-23T10:02:39;31.20;73.90
24035;DHT22;12242;50.952;4.678;2022-07-23T10:05:07;31.30;74.70
24035;DHT22;12242;50.952;4.678;2022-07-23T10:07:39;31.00;75.10
24035;DHT22;12242;50.952;4.678;2022-07-23T10:10:07;31.10;75.00
24035;DHT22;12242;50.952;4.678;2022-07-23T10:12:36;31.50;78.10
24035;DHT22;12242;50.952;4.678;2022-07-23T10:15:21;31.70;74.20
24035;DHT22;12242;50.952;4.678;2022-07-23T10:17:49;30.90;74.00
24035;DHT22;12242;50.952;4.678;2022-07-23T10:20:19;31.20;78.30
24035;DHT22;12242;50.952;4.678;2022-07-23T10:32:17;32.10;74.90
24035;DHT22;12242;50.952;4.678;2022-07-23T10:34:50;32.70;74.40
24035;DHT22;12242;50.952;4.678;2022-07-23T10:37:31;33.30;74.60
24035;DHT22;12242;50.952;4.678;2022-07-23T10:40:14;33.60;69.80
24035;DHT22;12242;50.952;4.678;2022-07-23T10:42:46;33.40;69.60
24035;DHT22;12242;50.952;4.678;2022-07-23T10:45:34;33.60;72.40
24035;DHT22;12242;50.952;4.678;2022-07-23T10:51:12;33.60;67.90
24035;DHT22;12242;50.952;4.678;2022-07-23T11:02:39;32.70;68.50
24035;DHT22;12242;50.952;4.678;2022-07-23T11:05:12;32.90;71.50
24035;DHT22;12242;50.952;4.678;2022-07-23T11:10:39;32.90;68.50
24035;DHT22;12242;50.952;4.678;2022-07-23T11:18:56;33.90;66.30
24035;DHT22;12242;50.952;4.678;2022-07-23T11:26:42;34.20;61.60
24035;DHT22;12242;50.952;4.678;2022-07-23T11:32:23;34.00;63.40
24035;DHT22;12242;50.952;4.678;2022-07-23T11:34:53;34.20;66.50
24035;DHT22;12242;50.952;4.678;2022-07-23T11:37:39;34.30;66.90
24035;DHT22;12242;50.952;4.678;2022-07-23T11:40:12;34.30;64.90
24035;DHT22;12242;50.952;4.678;2022-07-23T11:42:52;34.20;65.00
24035;DHT22;12242;50.952;4.678;2022-07-23T11:45:20;34.20;64.50
24035;DHT22;12242;50.952;4.678;2022-07-23T11:47:48;34.10;64.90
24035;DHT22;12242;50.952;4.678;2022-07-23T11:50:16;34.20;66.40
24035;DHT22;12242;50.952;4.678;2022-07-23T11:52:46;34.20;61.50
24035;DHT22;12242;50.952;4.678;2022-07-23T11:55:14;33.20;65.20
24035;DHT22;12242;50.952;4.678;2022-07-23T11:57:46;33.30;66.30
24035;DHT22;12242;50.952;4.678;2022-07-23T12:00:17;33.50;64.30
24035;DHT22;12242;50.952;4.678;2022-07-23T12:02:53;33.70;62.80
24035;DHT22;12242;50.952;4.678;2022-07-23T12:05:24;33.80;59.20
24035;DHT22;12242;50.952;4.678;2022-07-23T12:08:00;33.70;58.70
24035;DHT22;12242;50.952;4.678;2022-07-23T12:10:43;33.50;61.20
24035;DHT22;12242;50.952;4.678;2022-07-23T12:13:14;33.70;62.90
24035;DHT22;12242;50.952;4.678;2022-07-23T12:15:48;33.70;60.40
24035;DHT22;12242;50.952;4.678;2022-07-23T12:18:21;33.80;60.80
24035;DHT22;12242;50.952;4.678;2022-07-23T12:20:51;33.70;61.80
24035;DHT22;12242;50.952;4.678;2022-07-23T12:23:21;33.80;62.70
24035;DHT22;12242;50.952;4.678;2022-07-23T12:25:50;33.40;63.50
24035;DHT22;12242;50.952;4.678;2022-07-23T12:28:20;33.00;63.90
24035;DHT22;12242;50.952;4.678;2022-07-23T12:30:58;32.80;64.30
24035;DHT22;12242;50.952;4.678;2022-07-23T12:33:36;32.80;64.10
24035;DHT22;12242;50.952;4.678;2022-07-23T12:36:07;33.20;65.10
24035;DHT22;12242;50.952;4.678;2022-07-23T12:38:41;33.10;62.90
24035;DHT22;12242;50.952;4.678;2022-07-23T12:41:09;33.30;62.40
24035;DHT22;12242;50.952;4.678;2022-07-23T12:43:39;33.30;62.70
24035;DHT22;12242;50.952;4.678;2022-07-23T12:46:17;33.50;65.70
24035;DHT22;12242;50.952;4.678;2022-07-23T12:48:53;33.60;63.00
24035;DHT22;12242;50.952;4.678;2022-07-23T12:51:25;33.70;62.20
24035;DHT22;12242;50.952;4.678;2022-07-23T12:54:06;33.50;60.20
24035;DHT22;12242;50.952;4.678;2022-07-23T12:56:39;33.40;61.80
24035;DHT22;12242;50.952;4.678;2022-07-23T12:59:10;33.40;65.20
24035;DHT22;12242;50.952;4.678;2022-07-23T13:04:14;33.20;63.50
24035;DHT22;12242;50.952;4.678;2022-07-23T13:09:17;32.90;65.80
24035;DHT22;12242;50.952;4.678;2022-07-23T13:11:49;33.20;65.40
24035;DHT22;12242;50.952;4.678;2022-07-23T13:14:18;33.30;64.20
24035;DHT22;12242;50.952;4.678;2022-07-23T13:16:52;33.30;62.30
24035;DHT22;12242;50.952;4.678;2022-07-23T13:19:20;33.30;64.80
24035;DHT22;12242;50.952;4.678;2022-07-23T13:21:51;33.30;61.90
24035;DHT22;12242;50.952;4.678;2022-07-23T13:24:21;32.80;60.50
24035;DHT22;12242;50.952;4.678;2022-07-23T13:26:53;32.60;63.10
24035;DHT22;12242;50.952;4.678;2022-07-23T13:29:21;32.70;65.00
24035;DHT22;12242;50.952;4.678;2022-07-23T13:31:49;32.80;64.40
24035;DHT22;12242;50.952;4.678;2022-07-23T13:34:17;32.80;62.40
24035;DHT22;12242;50.952;4.678;2022-07-23T13:36:46;32.20;61.60
24035;DHT22;12242;50.952;4.678;2022-07-23T13:39:16;32.00;67.10
24035;DHT22;12242;50.952;4.678;2022-07-23T13:41:43;32.20;63.50
24035;DHT22;12242;50.952;4.678;2022-07-23T13:44:17;32.10;62.30
24035;DHT22;12242;50.952;4.678;2022-07-23T13:47:06;32.00;61.30
24035;DHT22;12242;50.952;4.678;2022-07-23T13:49:33;31.90;65.00
24035;DHT22;12242;50.952;4.678;2022-07-23T13:52:06;32.00;64.30
24035;DHT22;12242;50.952;4.678;2022-07-23T13:54:37;32.10;64.50
24035;DHT22;12242;50.952;4.678;2022-07-23T13:57:05;32.20;63.80
24035;DHT22;12242;50.952;4.678;2022-07-23T13:59:33;32.40;63.20
24035;DHT22;12242;50.952;4.678;2022-07-23T14:02:05;32.10;62.40
24035;DHT22;12242;50.952;4.678;2022-07-23T14:04:52;32.00;64.30
24035;DHT22;12242;50.952;4.678;2022-07-23T14:07:20;31.30;66.80
24035;DHT22;12242;50.952;4.678;2022-07-23T14:09:48;31.00;66.10
24035;DHT22;12242;50.952;4.678;2022-07-23T14:12:16;31.30;68.00
24035;DHT22;12242;50.952;4.678;2022-07-23T14:14:44;31.70;68.30
24035;DHT22;12242;50.952;4.678;2022-07-23T14:17:14;31.90;63.10
24035;DHT22;12242;50.952;4.678;2022-07-23T14:19:42;32.00;65.80
24035;DHT22;12242;50.952;4.678;2022-07-23T14:22:10;31.90;66.70
24035;DHT22;12242;50.952;4.678;2022-07-23T14:24:41;32.00;65.30
24035;DHT22;12242;50.952;4.678;2022-07-23T14:27:25;32.20;63.80
24035;DHT22;12242;50.952;4.678;2022-07-23T14:29:54;32.20;64.60
24035;DHT22;12242;50.952;4.678;2022-07-23T14:32:26;32.20;63.10
24035;DHT22;12242;50.952;4.678;2022-07-23T14:34:54;32.10;63.60
24035;DHT22;12242;50.952;4.678;2022-07-23T14:37:25;32.10;63.10
24035;DHT22;12242;50.952;4.678;2022-07-23T14:39:53;31.60;64.20
24035;DHT22;12242;50.952;4.678;2022-07-23T14:42:20;30.90;66.60
24035;DHT22;12242;50.952;4.678;2022-07-23T14:44:47;31.10;68.50
24035;DHT22;12242;50.952;4.678;2022-07-23T14:47:19;31.00;66.70
24035;DHT22;12242;50.952;4.678;2022-07-23T14:49:49;31.00;66.60
24035;DHT22;12242;50.952;4.678;2022-07-23T14:52:16;31.00;67.50
24035;DHT22;12242;50.952;4.678;2022-07-23T14:54:44;31.10;68.20
24035;DHT22;12242;50.952;4.678;2022-07-23T14:57:11;30.70;68.90
24035;DHT22;12242;50.952;4.678;2022-07-23T14:59:42;30.80;70.00
24035;DHT22;12242;50.952;4.678;2022-07-23T15:02:10;30.90;69.30
24035;DHT22;12242;50.952;4.678;2022-07-23T15:04:39;31.00;68.50
24035;DHT22;12242;50.952;4.678;2022-07-23T15:07:07;31.10;67.10
24035;DHT22;12242;50.952;4.678;2022-07-23T15:09:35;31.10;69.40
24035;DHT22;12242;50.952;4.678;2022-07-23T15:12:04;31.00;67.30
24035;DHT22;12242;50.952;4.678;2022-07-23T15:14:38;30.30;66.80
24035;DHT22;12242;50.952;4.678;2022-07-23T15:17:08;29.90;70.90
24035;DHT22;12242;50.952;4.678;2022-07-23T15:19:36;30.00;69.50
24035;DHT22;12242;50.952;4.678;2022-07-23T15:22:04;30.00;69.60
24035;DHT22;12242;50.952;4.678;2022-07-23T15:24:34;30.20;67.90
24035;DHT22;12242;50.952;4.678;2022-07-23T15:27:02;30.20;68.50
24035;DHT22;12242;50.952;4.678;2022-07-23T15:29:30;30.10;68.20
24035;DHT22;12242;50.952;4.678;2022-07-23T15:31:58;30.30;67.00
24035;DHT22;12242;50.952;4.678;2022-07-23T15:34:27;30.30;67.90
24035;DHT22;12242;50.952;4.678;2022-07-23T15:36:56;30.10;68.10
24035;DHT22;12242;50.952;4.678;2022-07-23T15:39:26;30.10;69.70
24035;DHT22;12242;50.952;4.678;2022-07-23T15:41:55;30.10;71.70
24035;DHT22;12242;50.952;4.678;2022-07-23T15:44:27;30.10;68.50
24035;DHT22;12242;50.952;4.678;2022-07-23T15:47:01;30.20;69.10
24035;DHT22;12242;50.952;4.678;2022-07-23T15:49:34;29.80;67.50
24035;DHT22;12242;50.952;4.678;2022-07-23T15:52:02;29.30;69.40
24035;DHT22;12242;50.952;4.678;2022-07-23T15:54:30;29.40;69.70
24035;DHT22;12242;50.952;4.678;2022-07-23T15:56:57;29.50;69.50
24035;DHT22;12242;50.952;4.678;2022-07-23T15:59:33;29.50;70.30
24035;DHT22;12242;50.952;4.678;2022-07-23T16:02:01;29.30;69.80
24035;DHT22;12242;50.952;4.678;2022-07-23T16:04:29;29.30;70.70
24035;DHT22;12242;50.952;4.678;2022-07-23T16:06:57;29.30;72.70
24035;DHT22;12242;50.952;4.678;2022-07-23T16:09:27;29.30;71.10
24035;DHT22;12242;50.952;4.678;2022-07-23T16:11:55;29.10;68.60
24035;DHT22;12242;50.952;4.678;2022-07-23T16:14:22;29.20;71.40
24035;DHT22;12242;50.952;4.678;2022-07-23T16:16:50;29.20;71.30
24035;DHT22;12242;50.952;4.678;2022-07-23T16:19:18;28.80;71.10
24035;DHT22;12242;50.952;4.678;2022-07-23T16:21:45;28.50;75.00
24035;DHT22;12242;50.952;4.678;2022-07-23T16:24:17;28.70;73.80
24035;DHT22;12242;50.952;4.678;2022-07-23T16:26:45;28.90;71.30
24035;DHT22;12242;50.952;4.678;2022-07-23T16:29:13;28.90;73.00
24035;DHT22;12242;50.952;4.678;2022-07-23T16:31:47;28.60;72.10
24035;DHT22;12242;50.952;4.678;2022-07-23T16:34:17;28.60;73.00
24035;DHT22;12242;50.952;4.678;2022-07-23T16:36:45;28.30;73.30